sensor_id;sensor_type;location;lat;lon;timestamp;temperature;humidity
42877;DHT22;42341;40.498;72.818;2023-03-01T03:00:13;6.10;82.20
42877;DHT22;42341;40.498;72.818;2023-03-01T03:02:50;6.50;80.80
42877;DHT22;42341;40.498;72.818;2023-03-01T03:05:21;7.20;79.90
42877;DHT22;42341;40.498;72.818;2023-03-01T03:07:48;7.30;77.80
42877;DHT22;42341;40.498;72.818;2023-03-01T03:10:26;7.70;76.70
42877;DHT22;42341;40.498;72.818;2023-03-01T03:12:55;8.40;74.90
42877;DHT22;42341;40.498;72.818;2023-03-01T03:15:22;8.50;71.90
42877;DHT22;42341;40.498;72.818;2023-03-01T03:17:50;8.60;72.50
42877;DHT22;42341;40.498;72.818;2023-03-01T03:20:18;9.30;69.80
42877;DHT22;42341;40.498;72.818;2023-03-01T03:22:46;9.20;67.50
42877;DHT22;42341;40.498;72.818;2023-03-01T03:25:13;9.10;68.70
42877;DHT22;42341;40.498;72.818;2023-03-01T03:27:40;9.10;68.10
42877;DHT22;42341;40.498;72.818;2023-03-01T03:30:10;9.10;68.60
42877;DHT22;42341;40.498;72.818;2023-03-01T03:32:42;9.10;69.20
42877;DHT22;42341;40.498;72.818;2023-03-01T03:35:19;10.00;68.10
42877;DHT22;42341;40.498;72.818;2023-03-01T03:37:46;10.40;67.60
42877;DHT22;42341;40.498;72.818;2023-03-01T03:40:28;11.30;66.30
42877;DHT22;42341;40.498;72.818;2023-03-01T03:42:54;12.20;65.20
42877;DHT22;42341;40.498;72.818;2023-03-01T03:45:20;11.70;64.30
42877;DHT22;42341;40.498;72.818;2023-03-01T03:47:46;11.10;65.20
42877;DHT22;42341;40.498;72.818;2023-03-01T03:50:15;11.80;65.40
42877;DHT22;42341;40.498;72.818;2023-03-01T03:52:41;11.90;64.80
42877;DHT22;42341;40.498;72.818;2023-03-01T03:55:09;12.80;63.90
42877;DHT22;42341;40.498;72.818;2023-03-01T03:57:40;11.90;63.30
42877;DHT22;42341;40.498;72.818;2023-03-01T04:00:11;12.60;63.70
42877;DHT22;42341;40.498;72.818;2023-03-01T04:02:41;13.40;61.80
42877;DHT22;42341;40.498;72.818;2023-03-01T04:05:10;14.20;61.10
42877;DHT22;42341;40.498;72.818;2023-03-01T04:07:37;14.80;60.20
42877;DHT22;42341;40.498;72.818;2023-03-01T04:10:04;14.10;60.20
42877;DHT22;42341;40.498;72.818;2023-03-01T04:12:33;13.20;61.30
42877;DHT22;42341;40.498;72.818;2023-03-01T04:15:05;14.10;62.80
42877;DHT22;42341;40.498;72.818;2023-03-01T04:17:43;14.30;61.90
42877;DHT22;42341;40.498;72.818;2023-03-01T04:20:11;15.30;61.80
42877;DHT22;42341;40.498;72.818;2023-03-01T04:22:38;14.00;61.60
42877;DHT22;42341;40.498;72.818;2023-03-01T04:25:04;14.90;62.70
42877;DHT22;42341;40.498;72.818;2023-03-01T04:27:35;16.00;62.40
42877;DHT22;42341;40.498;72.818;2023-03-01T04:30:02;16.10;60.80
42877;DHT22;42341;40.498;72.818;2023-03-01T04:32:29;14.90;63.30
42877;DHT22;42341;40.498;72.818;2023-03-01T04:34:55;16.00;63.50
42877;DHT22;42341;40.498;72.818;2023-03-01T04:37:21;16.10;61.60
42877;DHT22;42341;40.498;72.818;2023-03-01T04:39:46;16.50;60.40
42877;DHT22;42341;40.498;72.818;2023-03-01T04:42:16;15.70;61.30
42877;DHT22;42341;40.498;72.818;2023-03-01T04:44:43;15.10;62.30
42877;DHT22;42341;40.498;72.818;2023-03-01T04:47:09;14.80;63.90
42877;DHT22;42341;40.498;72.818;2023-03-01T04:49:36;16.30;62.00
42877;DHT22;42341;40.498;72.818;2023-03-01T04:52:03;17.10;61.20
42877;DHT22;42341;40.498;72.818;2023-03-01T04:54:30;18.80;60.00
42877;DHT22;42341;40.498;72.818;2023-03-01T04:56:56;17.70;57.70
42877;DHT22;42341;40.498;72.818;2023-03-01T04:59:22;18.40;59.30
42877;DHT22;42341;40.498;72.818;2023-03-01T05:01:50;19.20;57.10
42877;DHT22;42341;40.498;72.818;2023-03-01T05:04:16;17.70;58.30
42877;DHT22;42341;40.498;72.818;2023-03-01T05:06:42;18.80;59.20
42877;DHT22;42341;40.498;72.818;2023-03-01T05:09:08;19.20;57.40
42877;DHT22;42341;40.498;72.818;2023-03-01T05:11:34;20.60;57.10
42877;DHT22;42341;40.498;72.818;2023-03-01T05:14:03;19.70;54.80
42877;DHT22;42341;40.498;72.818;2023-03-01T05:16:29;19.80;55.80
42877;DHT22;42341;40.498;72.818;2023-03-01T05:18:57;21.20;52.20
42877;DHT22;42341;40.498;72.818;2023-03-01T05:21:23;21.60;54.20
42877;DHT22;42341;40.498;72.818;2023-03-01T05:23:49;21.80;50.10
42877;DHT22;42341;40.498;72.818;2023-03-01T05:26:17;20.90;52.40
42877;DHT22;42341;40.498;72.818;2023-03-01T05:28:44;22.30;49.30
42877;DHT22;42341;40.498;72.818;2023-03-01T05:31:10;22.50;51.10
42877;DHT22;42341;40.498;72.818;2023-03-01T05:33:40;24.30;49.40
42877;DHT22;42341;40.498;72.818;2023-03-01T05:36:09;25.70;47.60
42877;DHT22;42341;40.498;72.818;2023-03-01T05:38:35;26.10;45.70
42877;DHT22;42341;40.498;72.818;2023-03-01T05:41:02;23.10;47.00
42877;DHT22;42341;40.498;72.818;2023-03-01T05:43:31;24.10;49.40
42877;DHT22;42341;40.498;72.818;2023-03-01T05:46:00;24.70;46.60
42877;DHT22;42341;40.498;72.818;2023-03-01T05:48:26;23.80;47.70
42877;DHT22;42341;40.498;72.818;2023-03-01T05:50:52;24.70;46.70
42877;DHT22;42341;40.498;72.818;2023-03-01T05:53:19;25.10;47.50
42877;DHT22;42341;40.498;72.818;2023-03-01T05:55:47;26.50;46.00
42877;DHT22;42341;40.498;72.818;2023-03-01T05:58:16;24.30;47.30
42877;DHT22;42341;40.498;72.818;2023-03-01T06:00:44;25.70;48.20
42877;DHT22;42341;40.498;72.818;2023-03-01T06:03:15;26.20;46.60
42877;DHT22;42341;40.498;72.818;2023-03-01T06:05:42;27.20;46.00
42877;DHT22;42341;40.498;72.818;2023-03-01T06:08:10;26.80;44.30
42877;DHT22;42341;40.498;72.818;2023-03-01T06:10:36;26.90;46.30
42877;DHT22;42341;40.498;72.818;2023-03-01T06:13:02;27.60;44.20
42877;DHT22;42341;40.498;72.818;2023-03-01T06:15:28;28.30;45.20
42877;DHT22;42341;40.498;72.818;2023-03-01T06:17:55;30.10;43.00
42877;DHT22;42341;40.498;72.818;2023-03-01T06:20:26;27.20;42.80
42877;DHT22;42341;40.498;72.818;2023-03-01T06:22:52;26.50;44.60
42877;DHT22;42341;40.498;72.818;2023-03-01T06:25:23;28.20;44.10
42877;DHT22;42341;40.498;72.818;2023-03-01T06:27:49;28.70;43.50
42877;DHT22;42341;40.498;72.818;2023-03-01T06:30:17;28.90;42.10
42877;DHT22;42341;40.498;72.818;2023-03-01T06:32:44;28.30;43.50
42877;DHT22;42341;40.498;72.818;2023-03-01T06:35:12;30.20;42.30
42877;DHT22;42341;40.498;72.818;2023-03-01T06:37:39;30.70;42.70
42877;DHT22;42341;40.498;72.818;2023-03-01T06:40:06;32.80;40.40
42877;DHT22;42341;40.498;72.818;2023-03-01T06:42:38;30.70;39.90
42877;DHT22;42341;40.498;72.818;2023-03-01T06:45:05;31.90;40.60
42877;DHT22;42341;40.498;72.818;2023-03-01T06:47:32;31.30;40.00
42877;DHT22;42341;40.498;72.818;2023-03-01T06:49:59;32.90;40.00
42877;DHT22;42341;40.498;72.818;2023-03-01T06:52:25;32.00;38.70
42877;DHT22;42341;40.498;72.818;2023-03-01T06:54:51;31.50;39.90
42877;DHT22;42341;40.498;72.818;2023-03-01T06:57:17;32.40;38.70
42877;DHT22;42341;40.498;72.818;2023-03-01T06:59:43;33.00;39.00
42877;DHT22;42341;40.498;72.818;2023-03-01T07:02:13;34.80;38.30
42877;DHT22;42341;40.498;72.818;2023-03-01T07:04:39;32.20;37.70
42877;DHT22;42341;40.498;72.818;2023-03-01T07:07:05;31.10;39.10
42877;DHT22;42341;40.498;72.818;2023-03-01T07:09:32;32.10;38.30
42877;DHT22;42341;40.498;72.818;2023-03-01T07:11:58;31.80;36.90
42877;DHT22;42341;40.498;72.818;2023-03-01T07:14:24;31.30;36.60
42877;DHT22;42341;40.498;72.818;2023-03-01T07:16:52;29.20;37.30
42877;DHT22;42341;40.498;72.818;2023-03-01T07:19:18;29.90;37.70
42877;DHT22;42341;40.498;72.818;2023-03-01T07:21:44;29.60;38.20
42877;DHT22;42341;40.498;72.818;2023-03-01T07:24:10;29.50;36.90
42877;DHT22;42341;40.498;72.818;2023-03-01T07:26:36;26.20;38.00
42877;DHT22;42341;40.498;72.818;2023-03-01T07:29:03;25.30;40.60
42877;DHT22;42341;40.498;72.818;2023-03-01T07:31:30;26.50;41.20
42877;DHT22;42341;40.498;72.818;2023-03-01T07:33:56;27.40;40.40
42877;DHT22;42341;40.498;72.818;2023-03-01T07:36:23;28.50;39.60
42877;DHT22;42341;40.498;72.818;2023-03-01T07:56:10;19.40;47.70
42877;DHT22;42341;40.498;72.818;2023-03-01T07:58:38;19.30;50.10
42877;DHT22;42341;40.498;72.818;2023-03-01T08:01:06;18.80;49.40
42877;DHT22;42341;40.498;72.818;2023-03-01T08:03:33;17.50;52.00
42877;DHT22;42341;40.498;72.818;2023-03-01T08:06:00;17.60;52.90
42877;DHT22;42341;40.498;72.818;2023-03-01T08:08:27;17.50;53.20
42877;DHT22;42341;40.498;72.818;2023-03-01T08:10:55;17.70;53.90
42877;DHT22;42341;40.498;72.818;2023-03-01T08:13:21;17.00;53.90
42877;DHT22;42341;40.498;72.818;2023-03-01T08:15:51;17.20;54.00
42877;DHT22;42341;40.498;72.818;2023-03-01T08:18:18;16.80;54.40
42877;DHT22;42341;40.498;72.818;2023-03-01T08:20:45;16.90;54.80
42877;DHT22;42341;40.498;72.818;2023-03-01T08:23:11;16.10;55.80
42877;DHT22;42341;40.498;72.818;2023-03-01T08:25:37;16.10;56.50
42877;DHT22;42341;40.498;72.818;2023-03-01T08:28:04;16.20;56.50
42877;DHT22;42341;40.498;72.818;2023-03-01T08:30:30;16.10;56.50
42877;DHT22;42341;40.498;72.818;2023-03-01T08:32:56;16.40;56.70
42877;DHT22;42341;40.498;72.818;2023-03-01T08:35:22;16.60;55.80
42877;DHT22;42341;40.498;72.818;2023-03-01T08:37:48;16.10;54.90
42877;DHT22;42341;40.498;72.818;2023-03-01T08:40:15;15.50;57.30
42877;DHT22;42341;40.498;72.818;2023-03-01T08:42:41;15.70;58.20
42877;DHT22;42341;40.498;72.818;2023-03-01T08:45:11;15.60;57.90
42877;DHT22;42341;40.498;72.818;2023-03-01T08:47:37;15.40;59.90
42877;DHT22;42341;40.498;72.818;2023-03-01T08:50:04;15.30;58.90
42877;DHT22;42341;40.498;72.818;2023-03-01T08:52:30;15.40;59.30
42877;DHT22;42341;40.498;72.818;2023-03-01T08:54:57;15.50;59.10
42877;DHT22;42341;40.498;72.818;2023-03-01T08:57:23;14.90;59.90
42877;DHT22;42341;40.498;72.818;2023-03-01T08:59:49;14.80;61.00
42877;DHT22;42341;40.498;72.818;2023-03-01T09:02:17;14.60;61.60
42877;DHT22;42341;40.498;72.818;2023-03-01T09:04:43;14.50;62.40
42877;DHT22;42341;40.498;72.818;2023-03-01T09:07:10;14.70;62.30
42877;DHT22;42341;40.498;72.818;2023-03-01T09:09:37;14.60;62.20
42877;DHT22;42341;40.498;72.818;2023-03-01T09:12:03;14.70;61.50
42877;DHT22;42341;40.498;72.818;2023-03-01T09:14:30;14.80;62.30
42877;DHT22;42341;40.498;72.818;2023-03-01T09:16:56;14.40;63.90
42877;DHT22;42341;40.498;72.818;2023-03-01T09:19:22;14.50;65.10
42877;DHT22;42341;40.498;72.818;2023-03-01T09:21:48;14.50;65.20
42877;DHT22;42341;40.498;72.818;2023-03-01T09:24:22;14.70;65.10
42877;DHT22;42341;40.498;72.818;2023-03-01T09:26:49;14.50;65.20
42877;DHT22;42341;40.498;72.818;2023-03-01T09:29:16;14.50;67.00
42877;DHT22;42341;40.498;72.818;2023-03-01T09:31:43;14.30;67.40
42877;DHT22;42341;40.498;72.818;2023-03-01T09:34:09;14.30;68.90
42877;DHT22;42341;40.498;72.818;2023-03-01T09:36:35;14.20;68.50
42877;DHT22;42341;40.498;72.818;2023-03-01T09:39:02;14.00;69.80
42877;DHT22;42341;40.498;72.818;2023-03-01T09:41:54;13.90;70.10
42877;DHT22;42341;40.498;72.818;2023-03-01T09:44:42;14.10;70.10
42877;DHT22;42341;40.498;72.818;2023-03-01T09:47:30;14.30;69.60
42877;DHT22;42341;40.498;72.818;2023-03-01T09:50:14;14.20;69.00
42877;DHT22;42341;40.498;72.818;2023-03-01T09:53:01;14.20;70.10
42877;DHT22;42341;40.498;72.818;2023-03-01T09:55:42;14.10;69.40
42877;DHT22;42341;40.498;72.818;2023-03-01T10:00:46;14.00;70.00
42877;DHT22;42341;40.498;72.818;2023-03-01T10:12:00;14.00;70.90
42877;DHT22;42341;40.498;72.818;2023-03-01T10:19:43;13.60;71.50
42877;DHT22;42341;40.498;72.818;2023-03-01T10:22:26;13.80;71.40
42877;DHT22;42341;40.498;72.818;2023-03-01T10:28:06;14.00;72.20
42877;DHT22;42341;40.498;72.818;2023-03-01T10:30:38;14.10;71.30
42877;DHT22;42341;40.498;72.818;2023-03-01T10:33:33;13.90;71.70
42877;DHT22;42341;40.498;72.818;2023-03-01T10:36:01;13.90;71.90
42877;DHT22;42341;40.498;72.818;2023-03-01T10:38:31;14.00;71.60
42877;DHT22;42341;40.498;72.818;2023-03-01T10:40:59;14.30;70.90
42877;DHT22;42341;40.498;72.818;2023-03-01T10:43:49;14.10;70.40
42877;DHT22;42341;40.498;72.818;2023-03-01T10:46:36;13.70;71.50
42877;DHT22;42341;40.498;72.818;2023-03-01T10:49:22;14.00;71.40
42877;DHT22;42341;40.498;72.818;2023-03-01T10:51:50;13.80;71.00
42877;DHT22;42341;40.498;72.818;2023-03-01T10:54:29;13.60;72.00
42877;DHT22;42341;40.498;72.818;2023-03-01T10:56:58;13.70;72.30
42877;DHT22;42341;40.498;72.818;2023-03-01T10:59:34;13.90;71.70
42877;DHT22;42341;40.498;72.818;2023-03-01T11:04:35;14.10;71.20
42877;DHT22;42341;40.498;72.818;2023-03-01T11:07:02;14.20;71.40
42877;DHT22;42341;40.498;72.818;2023-03-01T11:09:32;14.40;71.40
42877;DHT22;42341;40.498;72.818;2023-03-01T11:12:13;14.40;70.80
42877;DHT22;42341;40.498;72.818;2023-03-01T11:14:55;14.40;70.30
42877;DHT22;42341;40.498;72.818;2023-03-01T11:17:28;14.50;71.00
42877;DHT22;42341;40.498;72.818;2023-03-01T11:20:24;14.60;71.30
42877;DHT22;42341;40.498;72.818;2023-03-01T11:22:56;14.50;70.90
42877;DHT22;42341;40.498;72.818;2023-03-01T11:25:26;14.50;71.30
42877;DHT22;42341;40.498;72.818;2023-03-01T11:27:54;14.50;71.40
42877;DHT22;42341;40.498;72.818;2023-03-01T11:31:35;14.30;73.20
42877;DHT22;42341;40.498;72.818;2023-03-01T11:36:18;14.20;73.20
42877;DHT22;42341;40.498;72.818;2023-03-01T11:38:47;14.20;73.10
42877;DHT22;42341;40.498;72.818;2023-03-01T11:41:23;14.30;74.00
42877;DHT22;42341;40.498;72.818;2023-03-01T11:44:18;14.20;74.10
42877;DHT22;42341;40.498;72.818;2023-03-01T11:47:39;14.20;74.90
42877;DHT22;42341;40.498;72.818;2023-03-01T12:02:58;13.90;76.00
42877;DHT22;42341;40.498;72.818;2023-03-01T12:10:29;13.80;76.60
42877;DHT22;42341;40.498;72.818;2023-03-01T12:27:39;13.50;76.50
42877;DHT22;42341;40.498;72.818;2023-03-01T12:30:34;13.40;76.20
42877;DHT22;42341;40.498;72.818;2023-03-01T12:33:40;13.40;76.00
42877;DHT22;42341;40.498;72.818;2023-03-01T12:36:31;13.50;76.10
42877;DHT22;42341;40.498;72.818;2023-03-01T12:39:28;13.50;75.90
42877;DHT22;42341;40.498;72.818;2023-03-01T12:42:03;13.40;75.70
42877;DHT22;42341;40.498;72.818;2023-03-01T12:45:16;13.40;75.90
42877;DHT22;42341;40.498;72.818;2023-03-01T12:50:29;13.50;75.70
42877;DHT22;42341;40.498;72.818;2023-03-01T12:52:58;13.40;75.80
42877;DHT22;42341;40.498;72.818;2023-03-01T12:55:34;13.40;75.90
42877;DHT22;42341;40.498;72.818;2023-03-01T12:58:26;13.30;75.70
42877;DHT22;42341;40.498;72.818;2023-03-01T13:02:16;13.20;76.10
42877;DHT22;42341;40.498;72.818;2023-03-01T13:04:41;13.10;76.10
42877;DHT22;42341;40.498;72.818;2023-03-01T13:15:25;13.00;76.40
42877;DHT22;42341;40.498;72.818;2023-03-01T13:17:58;13.10;76.60
42877;DHT22;42341;40.498;72.818;2023-03-01T13:20:32;13.10;76.70
42877;DHT22;42341;40.498;72.818;2023-03-01T13:26:24;13.10;77.30
42877;DHT22;42341;40.498;72.818;2023-03-01T13:28:52;13.00;77.10
42877;DHT22;42341;40.498;72.818;2023-03-01T13:38:59;12.80;78.60
42877;DHT22;42341;40.498;72.818;2023-03-01T13:46:48;12.70;79.60
42877;DHT22;42341;40.498;72.818;2023-03-01T13:49:19;12.70;79.70
42877;DHT22;42341;40.498;72.818;2023-03-01T13:51:48;12.50;80.30
42877;DHT22;42341;40.498;72.818;2023-03-01T13:54:18;12.50;80.20
42877;DHT22;42341;40.498;72.818;2023-03-01T13:56:48;12.50;80.20
42877;DHT22;42341;40.498;72.818;2023-03-01T13:59:20;12.40;80.50
42877;DHT22;42341;40.498;72.818;2023-03-01T14:01:56;12.40;80.60
42877;DHT22;42341;40.498;72.818;2023-03-01T14:04:33;12.50;80.60
42877;DHT22;42341;40.498;72.818;2023-03-01T14:07:32;12.40;80.70
42877;DHT22;42341;40.498;72.818;2023-03-01T14:10:02;12.40;81.30
42877;DHT22;42341;40.498;72.818;2023-03-01T14:12:38;12.20;81.40
42877;DHT22;42341;40.498;72.818;2023-03-01T14:15:27;12.30;81.40
42877;DHT22;42341;40.498;72.818;2023-03-01T14:18:14;12.30;81.20
42877;DHT22;42341;40.498;72.818;2023-03-01T14:20:45;12.30;81.50
42877;DHT22;42341;40.498;72.818;2023-03-01T14:23:21;12.30;81.60
42877;DHT22;42341;40.498;72.818;2023-03-01T14:25:55;12.10;82.00
42877;DHT22;42341;40.498;72.818;2023-03-01T14:28:27;12.20;82.10
42877;DHT22;42341;40.498;72.818;2023-03-01T14:30:58;12.10;82.10
42877;DHT22;42341;40.498;72.818;2023-03-01T14:33:26;12.10;82.10
42877;DHT22;42341;40.498;72.818;2023-03-01T14:38:42;12.10;82.80
42877;DHT22;42341;40.498;72.818;2023-03-01T14:41:17;12.10;82.60
42877;DHT22;42341;40.498;72.818;2023-03-01T14:46:35;11.90;83.20
42877;DHT22;42341;40.498;72.818;2023-03-01T14:49:18;11.70;83.70
42877;DHT22;42341;40.498;72.818;2023-03-01T14:52:17;11.60;84.60
42877;DHT22;42341;40.498;72.818;2023-03-01T14:54:47;11.50;84.80
42877;DHT22;42341;40.498;72.818;2023-03-01T14:57:25;11.50;85.00
42877;DHT22;42341;40.498;72.818;2023-03-01T14:59:59;11.50;85.10
42877;DHT22;42341;40.498;72.818;2023-03-01T15:02:31;11.60;85.30
42877;DHT22;42341;40.498;72.818;2023-03-01T15:05:01;11.50;85.30
42877;DHT22;42341;40.498;72.818;2023-03-01T15:07:38;11.60;85.30
42877;DHT22;42341;40.498;72.818;2023-03-01T15:10:07;11.50;85.30
42877;DHT22;42341;40.498;72.818;2023-03-01T15:12:41;11.20;86.20
42877;DHT22;42341;40.498;72.818;2023-03-01T15:15:21;11.10;87.30
42877;DHT22;42341;40.498;72.818;2023-03-01T15:17:54;11.10;87.80
42877;DHT22;42341;40.498;72.818;2023-03-01T15:20:22;11.20;87.70
42877;DHT22;42341;40.498;72.818;2023-03-01T15:22:52;11.10;87.80
42877;DHT22;42341;40.498;72.818;2023-03-01T15:25:20;11.10;88.00
42877;DHT22;42341;40.498;72.818;2023-03-01T15:27:48;11.10;88.00
42877;DHT22;42341;40.498;72.818;2023-03-01T15:30:34;11.10;88.60
42877;DHT22;42341;40.498;72.818;2023-03-01T15:33:28;11.00;88.70
42877;DHT22;42341;40.498;72.818;2023-03-01T15:35:57;10.80;89.70
42877;DHT22;42341;40.498;72.818;2023-03-01T15:40:57;10.80;89.60
42877;DHT22;42341;40.498;72.818;2023-03-01T15:43:43;10.70;89.60
42877;DHT22;42341;40.498;72.818;2023-03-01T15:46:45;10.60;90.10
42877;DHT22;42341;40.498;72.818;2023-03-01T15:52:02;10.40;90.60
42877;DHT22;42341;40.498;72.818;2023-03-01T15:54:28;10.40;90.80
42877;DHT22;42341;40.498;72.818;2023-03-01T15:56:55;10.30;90.90
42877;DHT22;42341;40.498;72.818;2023-03-01T15:59:21;10.30;90.90
42877;DHT22;42341;40.498;72.818;2023-03-01T16:01:48;10.20;91.10
42877;DHT22;42341;40.498;72.818;2023-03-01T16:04:17;10.10;91.40
42877;DHT22;42341;40.498;72.818;2023-03-01T16:06:52;10.00;91.60
42877;DHT22;42341;40.498;72.818;2023-03-01T16:09:22;9.90;91.70
42877;DHT22;42341;40.498;72.818;2023-03-01T16:11:49;9.90;92.10
42877;DHT22;42341;40.498;72.818;2023-03-01T16:14:15;10.00;92.20
42877;DHT22;42341;40.498;72.818;2023-03-01T16:16:42;9.90;92.30
42877;DHT22;42341;40.498;72.818;2023-03-01T16:19:08;9.80;92.40
42877;DHT22;42341;40.498;72.818;2023-03-01T16:21:36;9.60;92.70
42877;DHT22;42341;40.498;72.818;2023-03-01T16:24:02;9.70;92.80
42877;DHT22;42341;40.498;72.818;2023-03-01T16:26:28;9.70;92.80
42877;DHT22;42341;40.498;72.818;2023-03-01T16:28:56;9.80;92.80
42877;DHT22;42341;40.498;72.818;2023-03-01T16:31:22;9.80;92.60
42877;DHT22;42341;40.498;72.818;2023-03-01T16:33:49;9.90;92.50
42877;DHT22;42341;40.498;72.818;2023-03-01T16:36:18;9.90;92.50
42877;DHT22;42341;40.498;72.818;2023-03-01T16:38:45;10.00;92.40
42877;DHT22;42341;40.498;72.818;2023-03-01T16:41:15;10.00;92.20
42877;DHT22;42341;40.498;72.818;2023-03-01T16:43:42;9.80;92.30
42877;DHT22;42341;40.498;72.818;2023-03-01T16:46:19;9.60;92.70
42877;DHT22;42341;40.498;72.818;2023-03-01T16:48:46;9.50;92.90
42877;DHT22;42341;40.498;72.818;2023-03-01T16:51:13;9.30;93.40
42877;DHT22;42341;40.498;72.818;2023-03-01T16:53:39;9.40;93.40
42877;DHT22;42341;40.498;72.818;2023-03-01T16:56:09;9.40;93.50
42877;DHT22;42341;40.498;72.818;2023-03-01T16:58:36;9.40;93.60
42877;DHT22;42341;40.498;72.818;2023-03-01T17:01:17;9.20;93.60
42877;DHT22;42341;40.498;72.818;2023-03-01T17:03:45;9.10;93.80
42877;DHT22;42341;40.498;72.818;2023-03-01T17:06:17;9.10;93.80
42877;DHT22;42341;40.498;72.818;2023-03-01T17:08:44;9.10;94.00
42877;DHT22;42341;40.498;72.818;2023-03-01T17:11:13;9.00;93.80
42877;DHT22;42341;40.498;72.818;2023-03-01T17:13:39;9.00;94.00
42877;DHT22;42341;40.498;72.818;2023-03-01T17:16:08;9.10;93.90
42877;DHT22;42341;40.498;72.818;2023-03-01T17:18:34;8.90;93.90
42877;DHT22;42341;40.498;72.818;2023-03-01T17:21:00;8.80;94.30
42877;DHT22;42341;40.498;72.818;2023-03-01T17:23:27;8.60;94.80
42877;DHT22;42341;40.498;72.818;2023-03-01T17:25:54;8.40;95.10
42877;DHT22;42341;40.498;72.818;2023-03-01T17:28:22;8.40;95.30
42877;DHT22;42341;40.498;72.818;2023-03-01T17:30:48;8.30;95.40
42877;DHT22;42341;40.498;72.818;2023-03-01T17:33:14;8.40;95.60
42877;DHT22;42341;40.498;72.818;2023-03-01T17:35:40;8.50;95.40
42877;DHT22;42341;40.498;72.818;2023-03-01T17:38:06;8.50;95.40
42877;DHT22;42341;40.498;72.818;2023-03-01T17:40:33;8.50;95.40
42877;DHT22;42341;40.498;72.818;2023-03-01T17:43:00;8.50;95.20
42877;DHT22;42341;40.498;72.818;2023-03-01T17:45:27;8.50;95.20
42877;DHT22;42341;40.498;72.818;2023-03-01T17:47:53;8.50;95.20
42877;DHT22;42341;40.498;72.818;2023-03-01T17:50:19;8.50;95.30
42877;DHT22;42341;40.498;72.818;2023-03-01T17:52:45;8.30;95.40
42877;DHT22;42341;40.498;72.818;2023-03-01T17:55:11;8.20;95.70
42877;DHT22;42341;40.498;72.818;2023-03-01T17:57:38;8.10;96.10
42877;DHT22;42341;40.498;72.818;2023-03-01T18:00:08;7.90;96.50
42877;DHT22;42341;40.498;72.818;2023-03-01T18:02:34;7.80;96.70
42877;DHT22;42341;40.498;72.818;2023-03-01T18:05:00;7.80;97.00
